LIMJ/GOA METAR and TAF weather

Enter ICAO airport designator
Station Type Date Time Source
LIMJ METAR 2020/06/01 16:50 UTC NOAA

LIMJ 011650Z 22004KT 9999 FEW030 21/14 Q1016


Station Type Date Time Source
LIMJ Decoded METAR 2020/06/01 16:50 UTC NOAA

Genova / Sestri, Italy (LIMJ) 44-25N 008-51E 3M
Jun 01, 2020 - 12:50 PM EDT / 2020.06.01 1650 UTC
Wind: from the SW (220 degrees) at 5 MPH (4 KT):0
Visibility: greater than 7 mile(s):0
Sky conditions: mostly clear
Temperature: 69 F (21 C)
Dew Point: 57 F (14 C)
Relative Humidity: 64%
Pressure (altimeter): 30.00 in. Hg (1016 hPa)
ob: LIMJ 011650Z 22004KT 9999 FEW030 21/14 Q1016
cycle: 17

Station Type Date Time Source
LIMJ TAF 2020/06/01 12:23 UTC NOAA

TAF LIMJ 011100Z 0112/0212 18010KT CAVOK
TEMPO 0115/0118 SHRA
BECMG 0117/0119 VRB05KT
BECMG 0208/0210 18010KT

Example: see airport list